sensor_id;sensor_type;location;lat;lon;timestamp;pressure;altitude;pressure_sealevel;temperature;humidity
60817;BME280;51921;51.518;-3.188;2023-04-24T00:02:07;100444.38;;;5.38;90.94
60817;BME280;51921;51.518;-3.188;2023-04-24T00:04:32;100451.90;;;5.22;95.78
60817;BME280;51921;51.518;-3.188;2023-04-24T00:06:58;100452.86;;;5.01;97.86
60817;BME280;51921;51.518;-3.188;2023-04-24T00:09:23;100458.60;;;5.12;97.58
60817;BME280;51921;51.518;-3.188;2023-04-24T00:11:49;100463.02;;;5.37;96.07
60817;BME280;51921;51.518;-3.188;2023-04-24T00:14:15;100463.82;;;4.89;99.33
60817;BME280;51921;51.518;-3.188;2023-04-24T00:16:40;100465.95;;;5.40;100.00
60817;BME280;51921;51.518;-3.188;2023-04-24T00:19:06;100465.79;;;5.29;98.81
60817;BME280;51921;51.518;-3.188;2023-04-24T00:21:31;100468.56;;;5.49;98.01
60817;BME280;51921;51.518;-3.188;2023-04-24T00:23:57;100470.45;;;4.94;99.90
60817;BME280;51921;51.518;-3.188;2023-04-24T00:26:22;100468.54;;;5.56;94.15
60817;BME280;51921;51.518;-3.188;2023-04-24T00:28:48;100465.60;;;5.69;94.02
60817;BME280;51921;51.518;-3.188;2023-04-24T00:31:13;100470.68;;;6.07;93.27
60817;BME280;51921;51.518;-3.188;2023-04-24T00:33:38;100472.88;;;5.57;95.19
60817;BME280;51921;51.518;-3.188;2023-04-24T00:36:04;100471.92;;;4.85;97.44
60817;BME280;51921;51.518;-3.188;2023-04-24T00:38:29;100478.54;;;4.70;100.00
60817;BME280;51921;51.518;-3.188;2023-04-24T00:40:54;100472.68;;;6.47;90.31
60817;BME280;51921;51.518;-3.188;2023-04-24T00:43:20;100475.01;;;5.46;93.02
60817;BME280;51921;51.518;-3.188;2023-04-24T00:45:46;100477.82;;;5.91;91.39
60817;BME280;51921;51.518;-3.188;2023-04-24T00:48:12;100483.33;;;5.79;90.61
60817;BME280;51921;51.518;-3.188;2023-04-24T00:50:36;100483.79;;;5.32;91.34
60817;BME280;51921;51.518;-3.188;2023-04-24T00:53:02;100481.53;;;6.43;89.37
60817;BME280;51921;51.518;-3.188;2023-04-24T00:55:27;100486.06;;;5.84;90.54
60817;BME280;51921;51.518;-3.188;2023-04-24T00:57:52;100481.54;;;6.21;89.19
60817;BME280;51921;51.518;-3.188;2023-04-24T01:00:18;100480.37;;;7.32;84.33
60817;BME280;51921;51.518;-3.188;2023-04-24T01:02:44;100479.69;;;6.19;86.70
60817;BME280;51921;51.518;-3.188;2023-04-24T01:05:09;100481.32;;;6.45;85.88
60817;BME280;51921;51.518;-3.188;2023-04-24T01:07:35;100484.06;;;6.35;84.15
60817;BME280;51921;51.518;-3.188;2023-04-24T01:09:59;100488.62;;;6.98;84.25
60817;BME280;51921;51.518;-3.188;2023-04-24T01:12:25;100487.73;;;8.05;78.42
60817;BME280;51921;51.518;-3.188;2023-04-24T01:14:50;100484.36;;;7.08;83.63
60817;BME280;51921;51.518;-3.188;2023-04-24T01:17:16;100488.37;;;6.65;83.91
60817;BME280;51921;51.518;-3.188;2023-04-24T01:19:41;100490.75;;;7.37;81.89
60817;BME280;51921;51.518;-3.188;2023-04-24T01:22:10;100486.03;;;6.26;85.69
60817;BME280;51921;51.518;-3.188;2023-04-24T01:24:33;100492.38;;;6.14;90.20
60817;BME280;51921;51.518;-3.188;2023-04-24T01:26:58;100496.04;;;5.55;94.02
60817;BME280;51921;51.518;-3.188;2023-04-24T01:29:24;100495.28;;;6.03;91.20
60817;BME280;51921;51.518;-3.188;2023-04-24T01:31:49;100493.20;;;6.21;91.73
60817;BME280;51921;51.518;-3.188;2023-04-24T01:34:15;100492.40;;;6.71;90.63
60817;BME280;51921;51.518;-3.188;2023-04-24T01:36:41;100485.77;;;6.15;87.89
60817;BME280;51921;51.518;-3.188;2023-04-24T01:39:05;100487.89;;;8.31;79.34
60817;BME280;51921;51.518;-3.188;2023-04-24T01:41:30;100488.10;;;7.58;79.60
60817;BME280;51921;51.518;-3.188;2023-04-24T01:43:57;100485.45;;;5.95;87.88
60817;BME280;51921;51.518;-3.188;2023-04-24T01:46:22;100483.03;;;6.07;86.76
60817;BME280;51921;51.518;-3.188;2023-04-24T01:48:47;100484.49;;;5.79;88.70
60817;BME280;51921;51.518;-3.188;2023-04-24T01:51:13;100486.96;;;4.98;92.53
60817;BME280;51921;51.518;-3.188;2023-04-24T01:53:38;100488.06;;;5.24;91.27
60817;BME280;51921;51.518;-3.188;2023-04-24T01:56:04;100488.52;;;5.74;91.66
60817;BME280;51921;51.518;-3.188;2023-04-24T01:58:29;100490.66;;;7.18;85.41
60817;BME280;51921;51.518;-3.188;2023-04-24T02:00:56;100487.87;;;7.50;78.05
60817;BME280;51921;51.518;-3.188;2023-04-24T02:03:21;100487.97;;;7.28;81.65
60817;BME280;51921;51.518;-3.188;2023-04-24T02:05:46;100488.92;;;7.12;82.94
60817;BME280;51921;51.518;-3.188;2023-04-24T02:08:12;100492.04;;;5.67;87.52
60817;BME280;51921;51.518;-3.188;2023-04-24T02:10:37;100495.36;;;6.57;85.26
60817;BME280;51921;51.518;-3.188;2023-04-24T02:13:03;100496.26;;;6.96;83.75
60817;BME280;51921;51.518;-3.188;2023-04-24T02:15:28;100495.04;;;6.57;85.54
60817;BME280;51921;51.518;-3.188;2023-04-24T02:17:54;100496.63;;;6.46;86.19
60817;BME280;51921;51.518;-3.188;2023-04-24T02:20:19;100500.04;;;6.41;84.84
60817;BME280;51921;51.518;-3.188;2023-04-24T02:22:44;100501.17;;;5.80;89.83
60817;BME280;51921;51.518;-3.188;2023-04-24T02:25:09;100511.23;;;6.26;89.40
60817;BME280;51921;51.518;-3.188;2023-04-24T02:27:35;100512.99;;;6.46;86.99
60817;BME280;51921;51.518;-3.188;2023-04-24T02:30:01;100505.49;;;7.16;84.29
60817;BME280;51921;51.518;-3.188;2023-04-24T02:32:26;100504.33;;;6.98;86.79
60817;BME280;51921;51.518;-3.188;2023-04-24T02:34:51;100509.00;;;6.05;93.56
60817;BME280;51921;51.518;-3.188;2023-04-24T02:37:17;100511.64;;;6.01;92.98
60817;BME280;51921;51.518;-3.188;2023-04-24T02:39:42;100508.98;;;6.42;92.90
60817;BME280;51921;51.518;-3.188;2023-04-24T02:42:08;100514.43;;;5.79;92.63
60817;BME280;51921;51.518;-3.188;2023-04-24T02:44:34;100517.03;;;6.36;94.06
60817;BME280;51921;51.518;-3.188;2023-04-24T02:46:59;100520.92;;;5.38;95.99
60817;BME280;51921;51.518;-3.188;2023-04-24T02:49:24;100521.03;;;5.52;95.51
60817;BME280;51921;51.518;-3.188;2023-04-24T02:51:50;100524.85;;;6.45;93.82
60817;BME280;51921;51.518;-3.188;2023-04-24T02:54:16;100524.42;;;5.86;96.52
60817;BME280;51921;51.518;-3.188;2023-04-24T02:56:41;100523.46;;;5.23;100.00
60817;BME280;51921;51.518;-3.188;2023-04-24T02:59:06;100522.97;;;5.83;97.78
60817;BME280;51921;51.518;-3.188;2023-04-24T03:01:31;100520.09;;;6.23;94.24
60817;BME280;51921;51.518;-3.188;2023-04-24T03:03:56;100516.72;;;6.65;93.13
60817;BME280;51921;51.518;-3.188;2023-04-24T03:06:22;100508.29;;;6.30;92.62
60817;BME280;51921;51.518;-3.188;2023-04-24T03:08:47;100506.05;;;5.68;97.11
60817;BME280;51921;51.518;-3.188;2023-04-24T03:11:13;100502.83;;;6.04;93.25
60817;BME280;51921;51.518;-3.188;2023-04-24T03:13:38;100504.75;;;6.19;93.84
60817;BME280;51921;51.518;-3.188;2023-04-24T03:16:04;100504.19;;;6.15;88.02
60817;BME280;51921;51.518;-3.188;2023-04-24T03:18:29;100503.85;;;6.28;91.21
60817;BME280;51921;51.518;-3.188;2023-04-24T03:20:54;100505.30;;;6.58;91.56
60817;BME280;51921;51.518;-3.188;2023-04-24T03:23:20;100511.26;;;7.57;83.87
60817;BME280;51921;51.518;-3.188;2023-04-24T03:25:45;100512.06;;;7.42;84.66
60817;BME280;51921;51.518;-3.188;2023-04-24T03:28:11;100506.24;;;6.89;87.29
60817;BME280;51921;51.518;-3.188;2023-04-24T03:30:36;100504.90;;;6.12;90.17
60817;BME280;51921;51.518;-3.188;2023-04-24T03:33:02;100500.78;;;6.23;89.10
60817;BME280;51921;51.518;-3.188;2023-04-24T03:35:27;100498.41;;;7.30;86.40
60817;BME280;51921;51.518;-3.188;2023-04-24T03:37:53;100498.71;;;6.32;87.96
60817;BME280;51921;51.518;-3.188;2023-04-24T03:40:19;100500.24;;;6.39;87.15
60817;BME280;51921;51.518;-3.188;2023-04-24T03:42:44;100498.25;;;7.04;86.87
60817;BME280;51921;51.518;-3.188;2023-04-24T03:45:10;100495.94;;;6.97;86.32
60817;BME280;51921;51.518;-3.188;2023-04-24T03:47:35;100496.63;;;6.37;87.71
60817;BME280;51921;51.518;-3.188;2023-04-24T03:50:01;100498.77;;;6.81;84.02
60817;BME280;51921;51.518;-3.188;2023-04-24T03:52:26;100499.29;;;6.30;86.92
60817;BME280;51921;51.518;-3.188;2023-04-24T03:54:52;100500.30;;;5.43;90.95
60817;BME280;51921;51.518;-3.188;2023-04-24T03:57:17;100494.99;;;6.13;89.43
60817;BME280;51921;51.518;-3.188;2023-04-24T03:59:43;100490.79;;;6.70;86.25
60817;BME280;51921;51.518;-3.188;2023-04-24T04:02:08;100492.03;;;6.17;88.50
60817;BME280;51921;51.518;-3.188;2023-04-24T04:04:33;100498.24;;;6.57;86.79
60817;BME280;51921;51.518;-3.188;2023-04-24T04:06:59;100501.72;;;5.64;90.72
60817;BME280;51921;51.518;-3.188;2023-04-24T04:09:24;100503.62;;;8.36;76.87
60817;BME280;51921;51.518;-3.188;2023-04-24T04:11:50;100501.10;;;6.54;84.63
60817;BME280;51921;51.518;-3.188;2023-04-24T04:14:15;100500.98;;;5.87;89.90
60817;BME280;51921;51.518;-3.188;2023-04-24T04:16:40;100502.48;;;6.19;88.97
60817;BME280;51921;51.518;-3.188;2023-04-24T04:19:06;100502.96;;;5.40;93.43
60817;BME280;51921;51.518;-3.188;2023-04-24T04:21:31;100499.80;;;5.31;95.95
60817;BME280;51921;51.518;-3.188;2023-04-24T04:23:57;100497.76;;;4.73;98.86
60817;BME280;51921;51.518;-3.188;2023-04-24T04:26:23;100495.08;;;5.87;94.57
60817;BME280;51921;51.518;-3.188;2023-04-24T04:28:48;100497.29;;;5.22;93.09
60817;BME280;51921;51.518;-3.188;2023-04-24T04:31:13;100499.70;;;6.05;92.36
60817;BME280;51921;51.518;-3.188;2023-04-24T04:33:38;100501.85;;;5.63;94.52
60817;BME280;51921;51.518;-3.188;2023-04-24T04:36:04;100501.09;;;4.86;98.89
60817;BME280;51921;51.518;-3.188;2023-04-24T04:38:29;100498.09;;;5.92;93.74
60817;BME280;51921;51.518;-3.188;2023-04-24T04:40:54;100497.33;;;6.50;90.51
60817;BME280;51921;51.518;-3.188;2023-04-24T04:43:20;100510.49;;;6.26;89.67
60817;BME280;51921;51.518;-3.188;2023-04-24T04:45:46;100519.76;;;5.02;96.28
60817;BME280;51921;51.518;-3.188;2023-04-24T04:48:11;100530.14;;;5.13;98.39
60817;BME280;51921;51.518;-3.188;2023-04-24T04:50:36;100534.97;;;5.06;99.22
60817;BME280;51921;51.518;-3.188;2023-04-24T04:53:01;100539.22;;;4.80;100.00
60817;BME280;51921;51.518;-3.188;2023-04-24T04:55:26;100537.26;;;5.33;99.66
60817;BME280;51921;51.518;-3.188;2023-04-24T04:57:52;100536.17;;;5.47;98.51
60817;BME280;51921;51.518;-3.188;2023-04-24T05:00:17;100537.38;;;5.03;98.78
60817;BME280;51921;51.518;-3.188;2023-04-24T05:02:43;100534.67;;;2.72;100.00
60817;BME280;51921;51.518;-3.188;2023-04-24T05:05:09;100533.86;;;2.07;100.00
60817;BME280;51921;51.518;-3.188;2023-04-24T05:07:33;100533.59;;;2.34;100.00
60817;BME280;51921;51.518;-3.188;2023-04-24T05:09:59;100536.12;;;3.41;100.00
60817;BME280;51921;51.518;-3.188;2023-04-24T05:12:23;100536.70;;;2.64;100.00
60817;BME280;51921;51.518;-3.188;2023-04-24T05:14:49;100538.01;;;2.30;100.00
60817;BME280;51921;51.518;-3.188;2023-04-24T05:17:14;100541.28;;;2.96;100.00
60817;BME280;51921;51.518;-3.188;2023-04-24T05:19:40;100541.12;;;2.95;100.00
60817;BME280;51921;51.518;-3.188;2023-04-24T05:22:05;100543.66;;;3.48;100.00
60817;BME280;51921;51.518;-3.188;2023-04-24T05:24:30;100543.78;;;2.87;100.00
60817;BME280;51921;51.518;-3.188;2023-04-24T05:26:56;100542.97;;;2.78;100.00
60817;BME280;51921;51.518;-3.188;2023-04-24T05:29:21;100547.12;;;2.67;100.00
60817;BME280;51921;51.518;-3.188;2023-04-24T05:31:47;100549.31;;;4.17;100.00
60817;BME280;51921;51.518;-3.188;2023-04-24T05:34:12;100550.91;;;4.53;100.00
60817;BME280;51921;51.518;-3.188;2023-04-24T05:36:38;100555.51;;;5.84;100.00
60817;BME280;51921;51.518;-3.188;2023-04-24T05:39:03;100553.78;;;5.96;100.00
60817;BME280;51921;51.518;-3.188;2023-04-24T05:41:29;100548.16;;;7.62;94.30
60817;BME280;51921;51.518;-3.188;2023-04-24T05:43:54;100546.91;;;2.96;100.00
60817;BME280;51921;51.518;-3.188;2023-04-24T05:46:20;100548.10;;;2.50;100.00
60817;BME280;51921;51.518;-3.188;2023-04-24T05:48:45;100550.14;;;3.04;100.00
60817;BME280;51921;51.518;-3.188;2023-04-24T05:51:11;100550.49;;;4.50;100.00
60817;BME280;51921;51.518;-3.188;2023-04-24T05:53:36;100546.29;;;6.55;100.00
60817;BME280;51921;51.518;-3.188;2023-04-24T05:56:01;100553.72;;;6.41;100.00
60817;BME280;51921;51.518;-3.188;2023-04-24T05:58:26;100554.65;;;6.63;100.00
60817;BME280;51921;51.518;-3.188;2023-04-24T06:00:51;100552.02;;;7.32;96.62
60817;BME280;51921;51.518;-3.188;2023-04-24T06:03:17;100557.60;;;6.50;100.00
60817;BME280;51921;51.518;-3.188;2023-04-24T06:05:42;100559.55;;;6.66;100.00
60817;BME280;51921;51.518;-3.188;2023-04-24T06:08:07;100554.19;;;6.24;100.00
60817;BME280;51921;51.518;-3.188;2023-04-24T06:10:32;100556.34;;;6.39;100.00
60817;BME280;51921;51.518;-3.188;2023-04-24T06:12:58;100559.84;;;6.89;96.63
60817;BME280;51921;51.518;-3.188;2023-04-24T06:15:24;100555.74;;;6.70;96.69
60817;BME280;51921;51.518;-3.188;2023-04-24T06:17:49;100554.19;;;6.61;98.80
60817;BME280;51921;51.518;-3.188;2023-04-24T06:20:15;100553.94;;;7.31;95.42
60817;BME280;51921;51.518;-3.188;2023-04-24T06:22:40;100552.44;;;7.83;90.00
60817;BME280;51921;51.518;-3.188;2023-04-24T06:25:06;100554.57;;;7.79;92.21
60817;BME280;51921;51.518;-3.188;2023-04-24T06:27:30;100555.10;;;8.18;86.28
60817;BME280;51921;51.518;-3.188;2023-04-24T06:29:56;100557.51;;;7.78;88.99
60817;BME280;51921;51.518;-3.188;2023-04-24T06:32:22;100555.00;;;9.70;81.37
60817;BME280;51921;51.518;-3.188;2023-04-24T06:34:47;100553.19;;;7.72;89.55
60817;BME280;51921;51.518;-3.188;2023-04-24T06:37:12;100555.49;;;9.13;83.09
60817;BME280;51921;51.518;-3.188;2023-04-24T06:39:38;100551.36;;;10.09;78.19
60817;BME280;51921;51.518;-3.188;2023-04-24T06:42:04;100556.15;;;8.63;83.58
60817;BME280;51921;51.518;-3.188;2023-04-24T06:44:29;100560.01;;;8.86;80.72
60817;BME280;51921;51.518;-3.188;2023-04-24T06:46:54;100557.49;;;9.80;79.20
60817;BME280;51921;51.518;-3.188;2023-04-24T06:49:20;100563.11;;;8.90;81.73
60817;BME280;51921;51.518;-3.188;2023-04-24T06:51:45;100564.16;;;9.21;78.37
60817;BME280;51921;51.518;-3.188;2023-04-24T06:54:13;100567.54;;;7.83;85.33
60817;BME280;51921;51.518;-3.188;2023-04-24T06:56:36;100569.31;;;7.74;87.01
60817;BME280;51921;51.518;-3.188;2023-04-24T06:59:01;100571.58;;;7.95;86.85
60817;BME280;51921;51.518;-3.188;2023-04-24T07:01:27;100567.62;;;6.87;92.85
60817;BME280;51921;51.518;-3.188;2023-04-24T07:03:52;100571.09;;;9.04;84.72
60817;BME280;51921;51.518;-3.188;2023-04-24T07:06:18;100573.42;;;8.35;87.58
60817;BME280;51921;51.518;-3.188;2023-04-24T07:08:43;100574.62;;;7.57;90.74
60817;BME280;51921;51.518;-3.188;2023-04-24T07:11:08;100581.78;;;8.20;88.91
60817;BME280;51921;51.518;-3.188;2023-04-24T07:13:34;100581.17;;;6.99;93.96
60817;BME280;51921;51.518;-3.188;2023-04-24T07:15:59;100571.74;;;3.18;100.00
60817;BME280;51921;51.518;-3.188;2023-04-24T07:18:25;100567.75;;;5.57;100.00
60817;BME280;51921;51.518;-3.188;2023-04-24T07:20:50;100572.55;;;3.76;100.00
60817;BME280;51921;51.518;-3.188;2023-04-24T07:23:16;100572.55;;;4.37;100.00
60817;BME280;51921;51.518;-3.188;2023-04-24T07:25:41;100569.35;;;3.79;100.00
60817;BME280;51921;51.518;-3.188;2023-04-24T07:28:07;100566.54;;;3.38;100.00
60817;BME280;51921;51.518;-3.188;2023-04-24T07:30:32;100561.87;;;2.70;100.00
60817;BME280;51921;51.518;-3.188;2023-04-24T07:32:57;100560.52;;;2.95;100.00
60817;BME280;51921;51.518;-3.188;2023-04-24T07:35:23;100555.19;;;2.31;100.00
60817;BME280;51921;51.518;-3.188;2023-04-24T07:37:48;100555.79;;;2.69;100.00
60817;BME280;51921;51.518;-3.188;2023-04-24T07:40:13;100561.79;;;2.44;100.00
60817;BME280;51921;51.518;-3.188;2023-04-24T07:42:39;100564.26;;;3.23;100.00
60817;BME280;51921;51.518;-3.188;2023-04-24T07:45:05;100581.70;;;4.44;100.00
60817;BME280;51921;51.518;-3.188;2023-04-24T07:47:29;100588.44;;;4.41;100.00
60817;BME280;51921;51.518;-3.188;2023-04-24T07:49:54;100602.14;;;4.19;100.00
60817;BME280;51921;51.518;-3.188;2023-04-24T07:52:20;100585.72;;;2.97;100.00
60817;BME280;51921;51.518;-3.188;2023-04-24T07:54:45;100600.81;;;2.83;100.00
60817;BME280;51921;51.518;-3.188;2023-04-24T07:57:11;100596.81;;;3.53;100.00
60817;BME280;51921;51.518;-3.188;2023-04-24T07:59:37;100589.09;;;2.44;100.00
60817;BME280;51921;51.518;-3.188;2023-04-24T08:02:02;100587.33;;;2.35;100.00
60817;BME280;51921;51.518;-3.188;2023-04-24T08:04:28;100584.53;;;2.38;100.00
60817;BME280;51921;51.518;-3.188;2023-04-24T08:06:53;100587.32;;;2.26;100.00
60817;BME280;51921;51.518;-3.188;2023-04-24T08:09:18;100592.17;;;3.12;100.00
60817;BME280;51921;51.518;-3.188;2023-04-24T08:11:44;100591.86;;;3.12;100.00
60817;BME280;51921;51.518;-3.188;2023-04-24T08:14:10;100593.24;;;3.11;100.00
60817;BME280;51921;51.518;-3.188;2023-04-24T08:16:35;100589.52;;;2.28;100.00
60817;BME280;51921;51.518;-3.188;2023-04-24T08:19:01;100585.88;;;1.59;100.00
60817;BME280;51921;51.518;-3.188;2023-04-24T08:21:27;100585.64;;;1.35;100.00
60817;BME280;51921;51.518;-3.188;2023-04-24T08:23:52;100590.20;;;2.07;100.00
60817;BME280;51921;51.518;-3.188;2023-04-24T08:26:18;100593.33;;;2.16;100.00
60817;BME280;51921;51.518;-3.188;2023-04-24T08:28:43;100602.32;;;3.33;100.00
60817;BME280;51921;51.518;-3.188;2023-04-24T08:31:09;100611.05;;;4.80;100.00
60817;BME280;51921;51.518;-3.188;2023-04-24T08:33:35;100611.19;;;4.09;100.00
60817;BME280;51921;51.518;-3.188;2023-04-24T08:36:01;100612.29;;;2.52;100.00
60817;BME280;51921;51.518;-3.188;2023-04-24T08:38:31;100615.59;;;2.06;100.00
60817;BME280;51921;51.518;-3.188;2023-04-24T08:40:51;100615.91;;;1.97;100.00
60817;BME280;51921;51.518;-3.188;2023-04-24T08:43:17;100620.23;;;1.76;100.00
60817;BME280;51921;51.518;-3.188;2023-04-24T08:45:43;100629.97;;;1.44;100.00
60817;BME280;51921;51.518;-3.188;2023-04-24T08:48:09;100635.41;;;1.46;100.00
60817;BME280;51921;51.518;-3.188;2023-04-24T08:50:34;100637.16;;;1.86;100.00
60817;BME280;51921;51.518;-3.188;2023-04-24T08:52:59;100639.72;;;1.84;100.00
60817;BME280;51921;51.518;-3.188;2023-04-24T08:55:25;100640.15;;;2.15;100.00
60817;BME280;51921;51.518;-3.188;2023-04-24T08:57:51;100642.46;;;2.11;100.00
60817;BME280;51921;51.518;-3.188;2023-04-24T09:00:17;100641.33;;;1.92;100.00
60817;BME280;51921;51.518;-3.188;2023-04-24T09:02:42;100643.57;;;1.68;100.00
60817;BME280;51921;51.518;-3.188;2023-04-24T09:05:08;100641.07;;;1.96;100.00
60817;BME280;51921;51.518;-3.188;2023-04-24T09:07:34;100637.26;;;2.01;100.00
60817;BME280;51921;51.518;-3.188;2023-04-24T09:09:58;100634.32;;;1.96;100.00
60817;BME280;51921;51.518;-3.188;2023-04-24T09:12:23;100637.48;;;1.57;100.00
60817;BME280;51921;51.518;-3.188;2023-04-24T09:14:48;100639.09;;;1.81;100.00
60817;BME280;51921;51.518;-3.188;2023-04-24T09:17:13;100637.72;;;1.47;100.00
60817;BME280;51921;51.518;-3.188;2023-04-24T09:19:40;100643.45;;;1.56;100.00
60817;BME280;51921;51.518;-3.188;2023-04-24T09:22:05;100637.79;;;1.42;100.00
60817;BME280;51921;51.518;-3.188;2023-04-24T09:24:29;100635.60;;;0.98;100.00
60817;BME280;51921;51.518;-3.188;2023-04-24T09:26:57;100640.99;;;1.36;100.00
60817;BME280;51921;51.518;-3.188;2023-04-24T09:29:20;100641.15;;;1.31;100.00
60817;BME280;51921;51.518;-3.188;2023-04-24T09:31:46;100646.83;;;1.45;100.00
60817;BME280;51921;51.518;-3.188;2023-04-24T09:34:11;100654.28;;;1.71;100.00
60817;BME280;51921;51.518;-3.188;2023-04-24T09:36:38;100664.20;;;1.44;100.00
60817;BME280;51921;51.518;-3.188;2023-04-24T09:39:02;100663.58;;;1.70;100.00
60817;BME280;51921;51.518;-3.188;2023-04-24T09:41:28;100661.52;;;1.77;100.00
60817;BME280;51921;51.518;-3.188;2023-04-24T09:43:54;100667.91;;;1.61;100.00
60817;BME280;51921;51.518;-3.188;2023-04-24T09:46:18;100673.80;;;1.67;100.00
60817;BME280;51921;51.518;-3.188;2023-04-24T09:48:43;100672.51;;;2.48;100.00
60817;BME280;51921;51.518;-3.188;2023-04-24T09:51:08;100666.16;;;1.78;100.00
60817;BME280;51921;51.518;-3.188;2023-04-24T09:53:33;100671.75;;;1.69;100.00
60817;BME280;51921;51.518;-3.188;2023-04-24T09:56:02;100678.73;;;2.35;100.00
60817;BME280;51921;51.518;-3.188;2023-04-24T09:58:25;100678.72;;;3.96;100.00
60817;BME280;51921;51.518;-3.188;2023-04-24T10:00:49;100676.82;;;2.74;100.00
60817;BME280;51921;51.518;-3.188;2023-04-24T10:03:14;100683.68;;;4.88;100.00
60817;BME280;51921;51.518;-3.188;2023-04-24T10:05:40;100679.19;;;6.59;100.00
60817;BME280;51921;51.518;-3.188;2023-04-24T10:08:08;100683.25;;;4.96;100.00
60817;BME280;51921;51.518;-3.188;2023-04-24T10:10:33;100680.94;;;3.08;100.00
60817;BME280;51921;51.518;-3.188;2023-04-24T10:12:57;100682.19;;;3.04;100.00
60817;BME280;51921;51.518;-3.188;2023-04-24T10:15:22;100682.57;;;3.44;100.00
60817;BME280;51921;51.518;-3.188;2023-04-24T10:17:49;100682.29;;;2.30;100.00
60817;BME280;51921;51.518;-3.188;2023-04-24T10:20:13;100680.78;;;1.70;100.00
60817;BME280;51921;51.518;-3.188;2023-04-24T10:22:39;100684.47;;;2.26;100.00
60817;BME280;51921;51.518;-3.188;2023-04-24T10:25:06;100687.28;;;2.03;100.00
60817;BME280;51921;51.518;-3.188;2023-04-24T10:27:31;100687.30;;;2.19;100.00
60817;BME280;51921;51.518;-3.188;2023-04-24T10:29:56;100689.89;;;2.33;100.00
60817;BME280;51921;51.518;-3.188;2023-04-24T10:32:21;100694.94;;;1.86;100.00
60817;BME280;51921;51.518;-3.188;2023-04-24T10:34:48;100693.84;;;1.78;100.00
60817;BME280;51921;51.518;-3.188;2023-04-24T10:37:13;100685.14;;;1.95;100.00
60817;BME280;51921;51.518;-3.188;2023-04-24T10:39:39;100681.65;;;1.98;100.00
60817;BME280;51921;51.518;-3.188;2023-04-24T10:42:13;100679.52;;;1.84;100.00
60817;BME280;51921;51.518;-3.188;2023-04-24T10:44:35;100676.90;;;1.55;100.00
60817;BME280;51921;51.518;-3.188;2023-04-24T10:46:55;100673.43;;;2.75;100.00
60817;BME280;51921;51.518;-3.188;2023-04-24T10:49:27;100672.76;;;2.32;100.00
60817;BME280;51921;51.518;-3.188;2023-04-24T10:51:48;100668.47;;;2.77;100.00
60817;BME280;51921;51.518;-3.188;2023-04-24T10:56:37;100654.75;;;1.33;100.00
60817;BME280;51921;51.518;-3.188;2023-04-24T10:59:02;100650.63;;;1.44;100.00
60817;BME280;51921;51.518;-3.188;2023-04-24T11:01:29;100662.86;;;1.50;100.00
60817;BME280;51921;51.518;-3.188;2023-04-24T11:03:55;100672.68;;;2.38;100.00
60817;BME280;51921;51.518;-3.188;2023-04-24T11:06:29;100675.16;;;2.09;100.00
60817;BME280;51921;51.518;-3.188;2023-04-24T11:08:45;100674.25;;;2.41;100.00
60817;BME280;51921;51.518;-3.188;2023-04-24T11:11:12;100672.53;;;2.51;100.00
60817;BME280;51921;51.518;-3.188;2023-04-24T11:16:12;100673.77;;;3.00;100.00
60817;BME280;51921;51.518;-3.188;2023-04-24T11:18:26;100671.54;;;2.16;100.00
60817;BME280;51921;51.518;-3.188;2023-04-24T11:20:54;100675.99;;;2.16;100.00
60817;BME280;51921;51.518;-3.188;2023-04-24T11:23:18;100672.66;;;2.31;100.00
60817;BME280;51921;51.518;-3.188;2023-04-24T11:25:43;100675.10;;;3.09;100.00
60817;BME280;51921;51.518;-3.188;2023-04-24T11:28:14;100677.07;;;3.50;100.00
60817;BME280;51921;51.518;-3.188;2023-04-24T11:30:34;100674.06;;;3.05;100.00
60817;BME280;51921;51.518;-3.188;2023-04-24T11:33:03;100676.03;;;3.14;100.00
60817;BME280;51921;51.518;-3.188;2023-04-24T11:35:26;100672.84;;;2.47;100.00
60817;BME280;51921;51.518;-3.188;2023-04-24T11:37:52;100678.65;;;3.04;100.00
60817;BME280;51921;51.518;-3.188;2023-04-24T11:40:19;100679.59;;;2.66;100.00
60817;BME280;51921;51.518;-3.188;2023-04-24T11:42:44;100684.84;;;3.11;100.00
60817;BME280;51921;51.518;-3.188;2023-04-24T11:45:09;100682.68;;;2.15;100.00
60817;BME280;51921;51.518;-3.188;2023-04-24T11:47:34;100677.20;;;2.73;100.00
60817;BME280;51921;51.518;-3.188;2023-04-24T11:49:59;100676.71;;;3.05;100.00
60817;BME280;51921;51.518;-3.188;2023-04-24T11:52:25;100675.50;;;3.55;100.00
60817;BME280;51921;51.518;-3.188;2023-04-24T11:54:50;100674.09;;;4.08;100.00
60817;BME280;51921;51.518;-3.188;2023-04-24T11:57:16;100680.88;;;3.03;100.00
60817;BME280;51921;51.518;-3.188;2023-04-24T11:59:41;100680.28;;;3.41;100.00
60817;BME280;51921;51.518;-3.188;2023-04-24T12:02:07;100677.58;;;2.97;100.00
60817;BME280;51921;51.518;-3.188;2023-04-24T12:04:39;100678.55;;;2.80;100.00
60817;BME280;51921;51.518;-3.188;2023-04-24T12:06:59;100671.12;;;2.67;100.00
60817;BME280;51921;51.518;-3.188;2023-04-24T12:09:23;100670.84;;;3.35;100.00
60817;BME280;51921;51.518;-3.188;2023-04-24T12:11:55;100672.92;;;3.06;100.00
60817;BME280;51921;51.518;-3.188;2023-04-24T12:14:15;100678.04;;;3.36;100.00
60817;BME280;51921;51.518;-3.188;2023-04-24T12:16:40;100679.80;;;3.95;100.00
60817;BME280;51921;51.518;-3.188;2023-04-24T12:19:07;100674.53;;;3.59;100.00
60817;BME280;51921;51.518;-3.188;2023-04-24T12:21:31;100670.19;;;3.94;100.00
60817;BME280;51921;51.518;-3.188;2023-04-24T12:23:57;100675.04;;;4.73;100.00
60817;BME280;51921;51.518;-3.188;2023-04-24T12:26:23;100673.59;;;3.68;100.00
60817;BME280;51921;51.518;-3.188;2023-04-24T12:28:49;100672.99;;;3.86;100.00
60817;BME280;51921;51.518;-3.188;2023-04-24T12:31:14;100669.35;;;3.66;100.00
60817;BME280;51921;51.518;-3.188;2023-04-24T12:33:39;100673.27;;;3.63;100.00
60817;BME280;51921;51.518;-3.188;2023-04-24T12:36:05;100680.77;;;3.04;100.00
60817;BME280;51921;51.518;-3.188;2023-04-24T12:38:31;100679.35;;;3.75;100.00
60817;BME280;51921;51.518;-3.188;2023-04-24T12:41:04;100683.42;;;3.82;100.00